createdAt,value
2022-11-29T00:01:21.547Z,3.25
2022-11-29T00:03:49.055Z,3.10
2022-11-29T00:06:18.894Z,3.20
2022-11-29T00:08:46.603Z,3.60
2022-11-29T00:11:38.994Z,3.70
2022-11-29T00:14:08.319Z,3.15
2022-11-29T00:16:35.678Z,3.25
2022-11-29T00:19:03.643Z,3.20
2022-11-29T00:21:30.685Z,3.70
2022-11-29T00:23:57.809Z,3.80
2022-11-29T00:26:25.255Z,3.45
2022-11-29T00:28:52.254Z,3.17
2022-11-29T00:31:22.679Z,3.95
2022-11-29T00:33:50.523Z,3.50
2022-11-29T00:36:18.407Z,3.75
2022-11-29T00:38:45.765Z,4.03
2022-11-29T00:41:13.093Z,3.38
2022-11-29T00:43:40.492Z,3.85
2022-11-29T00:46:07.931Z,3.40
2022-11-29T00:48:36.007Z,3.72
2022-11-29T00:51:04.475Z,3.10
2022-11-29T00:53:32.519Z,3.42
2022-11-29T00:55:59.626Z,3.40
2022-11-29T00:58:26.804Z,3.45
2022-11-29T01:00:54.719Z,3.42
2022-11-29T01:03:22.013Z,3.45
2022-11-29T01:05:49.141Z,3.63
2022-11-29T01:08:17.447Z,4.15
2022-11-29T01:10:44.567Z,3.65
2022-11-29T01:13:12.144Z,2.95
2022-11-29T01:15:39.837Z,3.40
2022-11-29T01:18:07.001Z,3.60
2022-11-29T01:20:34.019Z,3.72
2022-11-29T01:23:01.007Z,3.80
2022-11-29T01:25:28.114Z,3.17
2022-11-29T01:27:55.193Z,3.10
2022-11-29T01:30:22.234Z,3.47
2022-11-29T01:32:49.436Z,2.72
2022-11-29T01:35:16.497Z,2.78
2022-11-29T01:37:43.606Z,2.80
2022-11-29T01:40:11.040Z,2.58
2022-11-29T01:42:38.169Z,2.80
2022-11-29T01:45:25.250Z,2.90
2022-11-29T01:47:57.248Z,3.00
2022-11-29T01:50:24.392Z,2.70
2022-11-29T01:52:51.488Z,2.78
2022-11-29T01:55:19.468Z,2.88
2022-11-29T01:57:47.333Z,2.90
2022-11-29T02:00:18.203Z,3.35
2022-11-29T02:02:52.456Z,2.70
2022-11-29T02:05:20.681Z,2.53
2022-11-29T02:07:52.216Z,2.40
2022-11-29T02:10:21.033Z,2.67
2022-11-29T02:13:01.591Z,2.67
2022-11-29T02:15:51.130Z,2.75
2022-11-29T02:18:59.533Z,2.45
2022-11-29T02:21:45.992Z,2.55
2022-11-29T02:24:42.864Z,2.63
2022-11-29T02:28:04.135Z,2.33
2022-11-29T02:30:33.795Z,2.47
2022-11-29T02:33:07.061Z,2.53
2022-11-29T02:36:09.309Z,2.38
2022-11-29T02:38:50.806Z,1.92
2022-11-29T02:41:43.741Z,2.75
2022-11-29T02:44:41.407Z,2.83
2022-11-29T02:47:15.907Z,2.45
2022-11-29T02:49:57.444Z,1.98
2022-11-29T02:52:59.534Z,2.78
2022-11-29T02:56:09.310Z,2.08
2022-11-29T02:58:42.107Z,1.98
2022-11-29T03:01:17.511Z,2.50
2022-11-29T03:03:47.631Z,2.17
2022-11-29T03:06:34.275Z,2.28
2022-11-29T03:09:06.945Z,1.98
2022-11-29T03:11:34.064Z,1.92
2022-11-29T03:14:21.535Z,2.33
2022-11-29T03:17:03.656Z,1.73
2022-11-29T03:19:37.292Z,2.50
2022-11-29T03:22:21.185Z,1.88
2022-11-29T03:24:55.024Z,2.53
2022-11-29T03:29:59.285Z,2.00
2022-11-29T03:32:39.416Z,1.98
2022-11-29T03:35:19.201Z,1.77
2022-11-29T03:38:04.772Z,2.13
2022-11-29T03:40:41.045Z,2.30
2022-11-29T03:43:17.993Z,2.15
2022-11-29T03:46:12.621Z,2.03
2022-11-29T03:49:03.107Z,2.10
2022-11-29T03:51:50.977Z,1.83
2022-11-29T03:54:40.938Z,2.17
2022-11-29T03:57:08.240Z,1.75
2022-11-29T04:00:07.286Z,2.08
2022-11-29T04:03:01.132Z,2.03
2022-11-29T04:06:16.098Z,2.40
2022-11-29T04:09:09.949Z,1.77
2022-11-29T04:11:59.336Z,2.20
2022-11-29T04:14:34.571Z,1.73
2022-11-29T04:17:10.281Z,2.20
2022-11-29T04:19:46.235Z,2.38
2022-11-29T04:22:25.076Z,2.05
2022-11-29T04:25:30.596Z,2.78
2022-11-29T04:28:31.511Z,2.58
2022-11-29T04:31:01.696Z,2.05
2022-11-29T04:33:54.396Z,2.45
2022-11-29T04:36:39.566Z,2.08
2022-11-29T04:39:28.260Z,2.40
2022-11-29T04:42:13.499Z,1.80
2022-11-29T04:45:09.970Z,2.17
2022-11-29T04:47:55.423Z,2.30
2022-11-29T04:50:34.921Z,2.45
2022-11-29T04:53:10.812Z,2.55
2022-11-29T04:55:52.747Z,2.17
2022-11-29T04:58:46.591Z,2.42
2022-11-29T05:01:32.607Z,2.38
2022-11-29T05:04:56.955Z,2.30
2022-11-29T05:07:34.197Z,2.35
2022-11-29T05:10:14.266Z,2.80
2022-11-29T05:13:01.565Z,2.10
2022-11-29T05:15:43.713Z,3.10
2022-11-29T05:18:38.484Z,2.40
2022-11-29T05:21:15.081Z,3.00
2022-11-29T05:24:15.802Z,3.08
2022-11-29T05:27:10.653Z,2.97
2022-11-29T05:29:46.687Z,2.05
2022-11-29T05:32:32.812Z,2.47
2022-11-29T05:35:18.112Z,2.53
2022-11-29T05:37:52.429Z,2.13
2022-11-29T05:40:44.657Z,2.28
2022-11-29T05:43:59.343Z,2.25
2022-11-29T05:46:54.090Z,2.28
2022-11-29T05:49:30.200Z,2.47
2022-11-29T05:52:00.085Z,2.83
2022-11-29T05:55:05.779Z,1.90
2022-11-29T05:57:59.851Z,2.20
2022-11-29T06:00:49.117Z,2.33
2022-11-29T06:03:48.318Z,2.13
2022-11-29T06:06:45.924Z,2.53
2022-11-29T06:09:29.201Z,3.10
2022-11-29T06:12:03.003Z,2.33
2022-11-29T06:17:25.824Z,2.17
2022-11-29T06:20:30.349Z,2.28
2022-11-29T06:23:12.585Z,2.25
2022-11-29T06:26:03.620Z,2.40
2022-11-29T06:29:01.961Z,2.28
2022-11-29T06:31:40.560Z,2.55
2022-11-29T06:34:10.681Z,2.47
2022-11-29T06:37:11.757Z,2.30
2022-11-29T06:39:39.034Z,2.10
2022-11-29T06:42:06.142Z,2.50
2022-11-29T06:44:33.475Z,2.55
2022-11-29T06:47:19.836Z,2.50
2022-11-29T06:49:52.181Z,2.28
2022-11-29T06:52:41.934Z,2.20
2022-11-29T06:55:11.989Z,2.20
2022-11-29T06:57:54.130Z,2.13
2022-11-29T07:00:23.988Z,2.05
2022-11-29T07:02:54.081Z,1.98
2022-11-29T07:05:32.314Z,1.85
2022-11-29T07:08:21.565Z,2.25
2022-11-29T07:10:53.544Z,2.40
2022-11-29T07:13:21.293Z,2.20
2022-11-29T07:16:07.499Z,2.10
2022-11-29T07:18:45.326Z,2.22
2022-11-29T07:21:51.009Z,2.00
2022-11-29T07:24:27.888Z,1.83
2022-11-29T07:27:20.909Z,2.00
2022-11-29T07:29:56.662Z,2.05
2022-11-29T07:32:24.189Z,2.17
2022-11-29T07:35:38.728Z,2.47
2022-11-29T07:38:18.234Z,2.08
2022-11-29T07:41:00.962Z,2.55
2022-11-29T07:43:34.281Z,2.28
2022-11-29T07:46:01.648Z,2.38
2022-11-29T07:48:28.893Z,2.35
2022-11-29T07:50:57.169Z,2.63
2022-11-29T07:53:24.751Z,2.95
2022-11-29T07:55:52.208Z,2.70
2022-11-29T07:58:19.919Z,2.88
2022-11-29T08:00:47.267Z,2.22
2022-11-29T08:03:14.953Z,2.55
2022-11-29T08:05:46.657Z,2.50
2022-11-29T08:08:14.136Z,2.20
2022-11-29T08:10:41.224Z,2.35
2022-11-29T08:13:08.447Z,2.30
2022-11-29T08:15:35.532Z,2.08
2022-11-29T08:18:03.542Z,2.22
2022-11-29T08:20:30.528Z,2.20
2022-11-29T08:23:00.611Z,2.30
2022-11-29T08:25:28.551Z,2.05
2022-11-29T08:27:56.533Z,2.10
2022-11-29T08:30:24.205Z,2.10
2022-11-29T08:32:52.049Z,2.35
2022-11-29T08:35:21.531Z,2.10
2022-11-29T08:37:48.726Z,2.50
2022-11-29T08:40:17.207Z,2.13
2022-11-29T08:42:44.278Z,2.17
2022-11-29T08:45:12.187Z,2.53
2022-11-29T08:47:40.520Z,2.45
2022-11-29T08:50:14.803Z,1.90
2022-11-29T08:53:06.682Z,2.35
2022-11-29T08:55:40.822Z,2.33
2022-11-29T08:58:12.515Z,2.20
2022-11-29T09:00:40.332Z,2.17
2022-11-29T09:03:26.299Z,2.58
2022-11-29T09:05:54.031Z,2.70
2022-11-29T09:08:21.380Z,2.50
2022-11-29T09:10:49.631Z,2.75
2022-11-29T09:13:18.420Z,2.55
2022-11-29T09:15:45.811Z,2.38
2022-11-29T09:18:13.002Z,2.33
2022-11-29T09:20:43.943Z,2.38
2022-11-29T09:23:12.372Z,2.40
2022-11-29T09:25:39.455Z,2.50
2022-11-29T09:28:07.147Z,2.40
2022-11-29T09:30:37.184Z,2.30
2022-11-29T09:33:05.204Z,2.63
2022-11-29T09:35:33.280Z,2.10
2022-11-29T09:38:00.520Z,2.45
2022-11-29T09:41:05.780Z,2.30
2022-11-29T09:43:49.275Z,1.95
2022-11-29T09:46:38.315Z,2.42
2022-11-29T09:49:24.813Z,2.10
2022-11-29T09:52:15.686Z,2.30
2022-11-29T09:55:19.909Z,2.25
2022-11-29T09:57:49.127Z,2.50
2022-11-29T10:00:20.390Z,2.03
2022-11-29T10:03:02.842Z,2.22
2022-11-29T10:05:35.988Z,2.15
2022-11-29T10:08:23.601Z,2.47
2022-11-29T10:10:57.199Z,2.60
2022-11-29T10:13:34.232Z,2.95
2022-11-29T10:16:15.318Z,2.42
2022-11-29T10:19:11.845Z,2.30
2022-11-29T10:21:44.327Z,2.05
2022-11-29T10:24:17.842Z,2.55
2022-11-29T10:26:45.967Z,2.55
2022-11-29T10:29:16.964Z,2.65
2022-11-29T10:31:49.738Z,2.72
2022-11-29T10:34:22.893Z,2.30
2022-11-29T10:36:54.171Z,2.63
2022-11-29T10:39:30.556Z,2.50
2022-11-29T10:42:02.575Z,2.28
2022-11-29T10:44:31.669Z,2.90
2022-11-29T10:47:04.457Z,2.88
2022-11-29T10:49:37.010Z,2.63
2022-11-29T10:52:04.133Z,2.30
2022-11-29T10:54:42.474Z,3.10
2022-11-29T10:57:15.440Z,2.22
2022-11-29T10:59:58.271Z,3.40
2022-11-29T11:02:25.877Z,2.97
2022-11-29T11:04:53.002Z,2.83
2022-11-29T11:07:31.454Z,2.58
2022-11-29T11:09:59.975Z,2.63
2022-11-29T11:12:32.886Z,2.55
2022-11-29T11:15:24.723Z,3.90
2022-11-29T11:17:58.106Z,2.85
2022-11-29T11:20:27.137Z,2.78
2022-11-29T11:23:21.405Z,3.08
2022-11-29T11:25:50.429Z,3.47
2022-11-29T11:28:34.601Z,2.95
2022-11-29T11:31:09.924Z,2.75
2022-11-29T11:33:39.784Z,2.58
2022-11-29T11:36:15.664Z,3.15
2022-11-29T11:38:52.935Z,2.65
2022-11-29T11:42:08.657Z,2.72
2022-11-29T11:44:50.751Z,2.22
2022-11-29T11:47:24.601Z,2.75
2022-11-29T11:52:42.800Z,2.55
2022-11-29T11:55:30.187Z,2.70
2022-11-29T11:58:12.438Z,2.20
2022-11-29T12:01:02.786Z,3.00
2022-11-29T12:03:37.931Z,2.42
2022-11-29T12:06:25.383Z,2.55
2022-11-29T12:09:18.962Z,2.80
2022-11-29T12:12:05.085Z,2.40
2022-11-29T12:14:36.427Z,2.83
2022-11-29T12:17:51.134Z,2.20
2022-11-29T12:20:40.179Z,2.83
2022-11-29T12:23:13.504Z,2.45
2022-11-29T12:25:46.770Z,2.65
2022-11-29T12:28:20.249Z,2.80
2022-11-29T12:31:18.825Z,2.55
2022-11-29T12:33:45.955Z,2.70
2022-11-29T12:36:28.650Z,2.65
2022-11-29T12:39:19.290Z,2.60
2022-11-29T12:42:16.330Z,2.83
2022-11-29T12:45:05.827Z,2.22
2022-11-29T12:47:53.890Z,2.28
2022-11-29T12:50:38.635Z,2.70
2022-11-29T12:53:36.673Z,2.75
2022-11-29T12:56:27.969Z,2.10
2022-11-29T12:59:22.801Z,2.80
2022-11-29T13:02:17.774Z,2.67
2022-11-29T13:05:12.355Z,2.47
2022-11-29T13:07:39.434Z,2.33
2022-11-29T13:10:44.089Z,2.80
2022-11-29T13:15:57.996Z,3.23
2022-11-29T13:18:37.556Z,2.70
2022-11-29T13:21:17.466Z,2.90
2022-11-29T13:24:08.695Z,2.50
2022-11-29T13:26:38.234Z,3.35
2022-11-29T13:29:07.043Z,2.45
2022-11-29T13:31:34.830Z,2.65
2022-11-29T13:34:08.670Z,2.60
2022-11-29T13:37:15.638Z,2.88
2022-11-29T13:40:09.120Z,2.28
2022-11-29T13:43:11.859Z,2.70
2022-11-29T13:45:58.912Z,2.50
2022-11-29T13:48:28.667Z,2.50
2022-11-29T13:50:57.549Z,2.22
2022-11-29T13:53:31.055Z,2.50
2022-11-29T13:56:01.243Z,3.03
2022-11-29T13:58:28.328Z,2.72
2022-11-29T14:01:03.044Z,3.03
2022-11-29T14:03:45.257Z,3.00
2022-11-29T14:06:23.846Z,2.50
2022-11-29T14:11:55.628Z,2.70
2022-11-29T14:14:29.094Z,3.03
2022-11-29T14:16:59.303Z,2.67
2022-11-29T14:19:34.989Z,3.30
2022-11-29T14:22:02.151Z,3.22
2022-11-29T14:24:38.265Z,3.08
2022-11-29T14:27:13.107Z,2.70
2022-11-29T14:29:54.954Z,2.67
2022-11-29T14:32:45.905Z,3.35
2022-11-29T14:35:22.349Z,2.50
2022-11-29T14:38:03.921Z,3.10
2022-11-29T14:40:43.313Z,2.78
2022-11-29T14:43:38.211Z,2.53
2022-11-29T14:46:17.329Z,2.92
2022-11-29T14:48:56.556Z,2.88
2022-11-29T14:51:26.300Z,3.00
2022-11-29T14:54:13.770Z,2.60
2022-11-29T14:56:45.357Z,3.88
2022-11-29T14:59:50.653Z,2.80
2022-11-29T15:02:20.635Z,2.70
2022-11-29T15:04:52.378Z,2.83
2022-11-29T15:07:28.994Z,2.75
2022-11-29T15:10:01.047Z,2.58
2022-11-29T15:12:34.164Z,2.90
2022-11-29T15:15:10.294Z,2.72
2022-11-29T15:17:43.474Z,2.42
2022-11-29T15:20:22.451Z,2.35
2022-11-29T15:22:55.624Z,2.30
2022-11-29T15:25:26.723Z,2.42
2022-11-29T15:28:01.854Z,2.80
2022-11-29T15:30:40.450Z,2.45
2022-11-29T15:33:18.818Z,2.50
2022-11-29T15:35:52.084Z,2.60
2022-11-29T15:38:23.699Z,3.05
2022-11-29T15:40:55.625Z,2.55
2022-11-29T15:43:36.458Z,2.30
2022-11-29T15:46:03.630Z,2.10
2022-11-29T15:48:32.522Z,2.25
2022-11-29T15:51:22.894Z,2.25
2022-11-29T15:54:11.765Z,1.98
2022-11-29T15:56:52.516Z,2.38
2022-11-29T15:59:37.211Z,2.30
2022-11-29T16:02:25.300Z,3.28
2022-11-29T16:04:56.160Z,2.72
2022-11-29T16:07:26.178Z,2.75
2022-11-29T16:10:02.187Z,3.00
2022-11-29T16:12:29.433Z,2.90
2022-11-29T16:14:58.675Z,2.30
2022-11-29T16:17:28.405Z,2.75
2022-11-29T16:20:25.482Z,2.55
2022-11-29T16:23:13.997Z,2.65
2022-11-29T16:26:00.093Z,2.53
2022-11-29T16:28:33.624Z,2.97
2022-11-29T16:31:00.853Z,2.63
2022-11-29T16:33:28.106Z,2.38
2022-11-29T16:36:13.639Z,2.40
2022-11-29T16:38:47.045Z,2.70
2022-11-29T16:41:26.060Z,2.25
2022-11-29T16:43:55.788Z,2.58
2022-11-29T16:46:22.811Z,2.40
2022-11-29T16:48:50.661Z,2.50
2022-11-29T16:51:39.024Z,3.03
2022-11-29T16:54:34.541Z,2.10
2022-11-29T16:57:07.145Z,2.65
2022-11-29T16:59:35.502Z,2.67
2022-11-29T17:02:02.580Z,2.50
2022-11-29T17:04:29.705Z,2.80
2022-11-29T17:06:57.564Z,3.00
2022-11-29T17:09:30.710Z,3.03
2022-11-29T17:12:00.179Z,2.42
2022-11-29T17:14:27.926Z,2.92
2022-11-29T17:16:55.682Z,3.20
2022-11-29T17:19:24.128Z,2.60
2022-11-29T17:21:52.301Z,3.03
2022-11-29T17:24:21.329Z,2.70
2022-11-29T17:26:48.870Z,2.60
2022-11-29T17:29:17.636Z,2.83
2022-11-29T17:31:45.905Z,2.38
2022-11-29T17:34:13.355Z,3.35
2022-11-29T17:36:40.812Z,3.10
2022-11-29T17:39:08.486Z,3.10
2022-11-29T17:41:36.285Z,3.20
2022-11-29T17:44:04.097Z,3.05
2022-11-29T17:46:33.868Z,3.30
2022-11-29T17:49:03.340Z,3.17
2022-11-29T17:54:18.095Z,2.72
2022-11-29T17:56:45.293Z,3.22
2022-11-29T17:59:12.466Z,2.75
2022-11-29T18:01:39.629Z,3.90
2022-11-29T18:04:08.639Z,4.00
2022-11-29T18:06:40.811Z,2.67
2022-11-29T18:09:09.957Z,3.67
2022-11-29T18:11:46.877Z,3.30
2022-11-29T18:14:18.074Z,4.03
2022-11-29T18:16:45.894Z,3.05
2022-11-29T18:19:16.102Z,4.03
2022-11-29T18:21:43.546Z,2.30
2022-11-29T18:24:11.019Z,3.75
2022-11-29T18:26:39.438Z,3.20
2022-11-29T18:29:07.377Z,3.00
2022-11-29T18:31:37.970Z,3.15
2022-11-29T18:34:07.400Z,3.55
2022-11-29T18:36:38.107Z,3.47
2022-11-29T18:39:11.013Z,3.28
2022-11-29T18:41:38.836Z,3.37
2022-11-29T18:44:08.702Z,2.75
2022-11-29T18:46:38.052Z,2.92
2022-11-29T18:49:07.668Z,2.70
2022-11-29T18:51:35.700Z,3.08
2022-11-29T18:54:03.452Z,2.42
2022-11-29T18:56:33.123Z,2.70
2022-11-29T18:59:11.591Z,2.42
2022-11-29T19:01:42.800Z,2.78
2022-11-29T19:04:15.946Z,3.83
2022-11-29T19:06:43.493Z,4.37
2022-11-29T19:09:16.866Z,4.00
2022-11-29T19:11:44.135Z,3.95
2022-11-29T19:14:13.028Z,3.40
2022-11-29T19:16:43.331Z,3.03
2022-11-29T19:19:11.013Z,2.78
2022-11-29T19:21:40.265Z,2.33
2022-11-29T19:24:14.022Z,2.67
2022-11-29T19:26:44.881Z,2.33
2022-11-29T19:29:13.056Z,2.40
2022-11-29T19:31:40.313Z,3.10
2022-11-29T19:34:07.670Z,3.40
2022-11-29T19:36:34.783Z,3.70
2022-11-29T19:39:02.807Z,3.25
2022-11-29T19:41:35.667Z,3.35
2022-11-29T19:44:06.253Z,3.00
2022-11-29T19:46:39.955Z,3.40
2022-11-29T19:51:35.579Z,2.92
2022-11-29T19:54:05.420Z,2.67
2022-11-29T19:56:32.938Z,3.00
2022-11-29T19:59:00.173Z,2.90
2022-11-29T20:01:40.166Z,3.38
2022-11-29T20:04:08.576Z,3.92
2022-11-29T20:06:35.845Z,3.25
2022-11-29T20:09:02.817Z,3.63
2022-11-29T20:11:29.837Z,3.47
2022-11-29T20:13:59.879Z,2.85
2022-11-29T20:16:28.776Z,2.85
2022-11-29T20:18:58.610Z,2.97
2022-11-29T20:21:28.773Z,2.70
2022-11-29T20:24:01.372Z,2.88
2022-11-29T20:26:29.285Z,2.95
2022-11-29T20:28:56.392Z,3.03
2022-11-29T20:31:24.138Z,2.38
2022-11-29T20:33:53.240Z,2.50
2022-11-29T20:36:48.010Z,2.00
2022-11-29T20:39:31.185Z,2.40
2022-11-29T20:42:29.391Z,2.70
2022-11-29T20:44:58.786Z,3.25
2022-11-29T20:47:27.419Z,2.28
2022-11-29T20:49:55.138Z,2.90
2022-11-29T20:52:38.517Z,2.50
2022-11-29T20:55:06.140Z,2.75
2022-11-29T20:57:33.094Z,2.67
2022-11-29T21:00:00.421Z,2.80
2022-11-29T21:02:27.449Z,3.20
2022-11-29T21:04:54.454Z,2.60
2022-11-29T21:07:21.512Z,3.05
2022-11-29T21:09:48.575Z,2.45
2022-11-29T21:12:16.157Z,2.38
2022-11-29T21:14:44.484Z,2.45
2022-11-29T21:17:11.989Z,3.00
2022-11-29T21:19:40.245Z,2.80
2022-11-29T21:22:09.903Z,2.40
2022-11-29T21:24:48.806Z,2.00
2022-11-29T21:27:20.683Z,2.60
2022-11-29T21:29:47.954Z,2.58
2022-11-29T21:32:24.158Z,4.13
2022-11-29T21:34:52.691Z,2.80
2022-11-29T21:37:28.073Z,2.40
2022-11-29T21:39:55.631Z,2.30
2022-11-29T21:42:22.583Z,2.40
2022-11-29T21:44:49.665Z,1.90
2022-11-29T21:47:16.835Z,2.10
2022-11-29T21:49:43.843Z,2.05
2022-11-29T21:52:11.097Z,1.60
2022-11-29T21:54:38.199Z,2.15
2022-11-29T21:57:05.400Z,1.65
2022-11-29T21:59:32.347Z,1.60
2022-11-29T22:01:59.419Z,1.90
2022-11-29T22:04:26.910Z,1.85
2022-11-29T22:06:53.995Z,1.90
2022-11-29T22:09:20.989Z,1.63
2022-11-29T22:11:48.150Z,1.90
2022-11-29T22:14:19.363Z,1.50
2022-11-29T22:17:00.524Z,2.08
2022-11-29T22:19:30.071Z,2.20
2022-11-29T22:21:59.618Z,1.88
2022-11-29T22:24:32.027Z,1.80
2022-11-29T22:26:59.092Z,1.50
2022-11-29T22:29:26.278Z,2.03
2022-11-29T22:31:55.832Z,1.60
2022-11-29T22:34:25.457Z,1.70
2022-11-29T22:36:52.568Z,1.70
2022-11-29T22:39:19.765Z,2.15
2022-11-29T22:41:53.677Z,1.77
2022-11-29T22:44:21.708Z,1.55
2022-11-29T22:46:48.914Z,1.90
2022-11-29T22:49:16.022Z,1.92
2022-11-29T22:51:44.194Z,2.17
2022-11-29T22:54:11.963Z,1.70
2022-11-29T22:56:40.979Z,1.58
2022-11-29T22:59:08.699Z,2.08
2022-11-29T23:01:38.172Z,1.77
2022-11-29T23:04:07.611Z,2.05
2022-11-29T23:06:37.640Z,1.80
2022-11-29T23:09:10.952Z,2.00
2022-11-29T23:11:38.662Z,2.13
2022-11-29T23:14:05.756Z,1.65
2022-11-29T23:16:33.854Z,1.60
2022-11-29T23:19:01.578Z,2.05
2022-11-29T23:21:35.389Z,1.80
2022-11-29T23:26:40.310Z,1.50
2022-11-29T23:29:10.180Z,1.65
2022-11-29T23:31:37.522Z,1.63
2022-11-29T23:34:04.836Z,2.08
2022-11-29T23:36:32.244Z,1.85
2022-11-29T23:38:59.323Z,1.73
2022-11-29T23:41:26.427Z,1.65
2022-11-29T23:43:53.418Z,1.60
2022-11-29T23:46:23.400Z,1.58
2022-11-29T23:48:50.949Z,1.85
2022-11-29T23:51:19.283Z,1.58
2022-11-29T23:53:47.181Z,1.60
2022-11-29T23:56:16.770Z,1.70
2022-11-29T23:58:44.865Z,1.50
